Time;durP1;ratioP1;P1;durP2;ratioP2;P2;SDS_P1;SDS_P2;PMS_P1;PMS_P2;Temp;Humidity;BMP_temperature;BMP_pressure;BME280_temperature;BME280_humidity;BME280_pressure;Samples;Min_cycle;Max_cycle;Signal;HPM_P1;HPM_P2
2023/05/23 07:22:59;;;;;;;14.32;6.63;;;;;;;-145.79;71.43;78129.81;5274946;28;20399;-68
2023/05/23 07:25:30;;;;;;;11.05;5.80;;;;;;;-145.79;70.55;78136.19;5252409;28;20029;-68
2023/05/23 07:28:02;;;;;;;10.95;5.63;;;;;;;-145.79;69.36;78138.28;5258663;28;20029;-69
2023/05/23 07:30:34;;;;;;;9.65;5.32;;;;;;;-145.79;68.61;78131.94;5259279;28;20406;-69
2023/05/23 07:33:05;;;;;;;12.88;6.53;;;;;;;-145.79;67.69;78114.97;5259396;28;20068;-70
2023/05/23 07:35:36;;;;;;;11.93;5.63;;;;;;;-145.79;66.71;78110.72;5258216;28;20041;-69
2023/05/23 07:38:08;;;;;;;12.52;7.00;;;;;;;-145.79;65.34;78114.97;5259144;28;20057;-69
2023/05/23 07:40:39;;;;;;;10.15;5.15;;;;;;;-145.79;64.91;78110.72;5258875;28;20028;-69
2023/05/23 07:43:10;;;;;;;10.00;5.40;;;;;;;-145.79;64.60;78098.00;5258179;28;20027;-69
2023/05/23 07:45:42;;;;;;;11.90;5.50;;;;;;;-145.79;64.06;78076.81;5259009;28;20025;-69
2023/05/23 07:48:13;;;;;;;8.93;5.38;;;;;;;-145.79;63.95;78081.06;5258445;28;20598;-69
2023/05/23 07:50:44;;;;;;;11.23;5.53;;;;;;;-145.79;62.92;78068.34;5258944;28;20026;-68
2023/05/23 07:53:15;;;;;;;8.30;5.75;;;;;;;-145.79;62.46;78064.09;5259092;28;20112;-68
2023/05/23 07:55:47;;;;;;;8.50;5.45;;;;;;;-145.79;61.57;78059.84;5258058;28;20025;-68
2023/05/23 07:58:18;;;;;;;11.68;7.40;;;;;;;-145.79;61.86;78053.50;5258636;28;20104;-69
2023/05/23 08:00:49;;;;;;;10.57;5.55;;;;;;;-145.79;63.09;78074.69;5258365;28;20060;-69
2023/05/23 08:03:21;;;;;;;12.95;7.07;;;;;;;-145.79;63.52;78093.78;5257930;28;20104;-70
2023/05/23 08:05:52;;;;;;;13.85;6.55;;;;;;;-145.79;63.79;78081.06;5258792;28;20387;-70
2023/05/23 08:08:26;;;;;;;10.98;6.38;;;;;;;-145.79;63.54;78106.50;5259039;28;20423;-70
2023/05/23 08:10:57;;;;;;;11.73;7.30;;;;;;;-145.79;64.01;78076.81;5257513;28;20028;-69
2023/05/23 08:13:30;;;;;;;11.20;5.43;;;;;;;-145.79;63.12;78068.34;5258335;28;20021;-69
2023/05/23 08:16:01;;;;;;;10.70;5.43;;;;;;;-145.79;62.36;78100.13;5257975;28;20033;-70
2023/05/23 08:18:35;;;;;;;11.65;5.85;;;;;;;-145.79;62.60;78093.78;5258349;28;20457;-70
2023/05/23 08:21:06;;;;;;;11.70;6.18;;;;;;;-145.79;62.63;78081.06;5257889;28;20099;-70
2023/05/23 08:23:40;;;;;;;10.35;5.72;;;;;;;-145.79;62.55;78064.09;5257479;28;20025;-69
2023/05/23 08:26:11;;;;;;;11.43;6.22;;;;;;;-145.79;62.63;78057.72;5258520;28;20033;-69
2023/05/23 08:28:43;;;;;;;11.18;5.20;;;;;;;-145.79;62.33;78051.38;5258458;28;20025;-69
2023/05/23 08:31:14;;;;;;;7.35;5.18;;;;;;;-145.79;62.16;78072.56;5256805;28;20053;-69
2023/05/23 08:33:46;;;;;;;15.07;6.53;;;;;;;-145.79;62.84;78068.34;5247415;28;20029;-69
2023/05/23 08:36:17;;;;;;;11.45;6.57;;;;;;;-145.79;62.59;78089.53;5243865;28;20033;-68
2023/05/23 08:38:50;;;;;;;9.35;4.70;;;;;;;-145.79;62.83;78085.28;5243477;28;20033;-68
2023/05/23 08:41:23;;;;;;;7.35;4.50;;;;;;;-145.79;63.31;78081.06;5244087;28;20370;-69
2023/05/23 08:43:54;;;;;;;9.27;5.28;;;;;;;-145.79;63.40;78085.28;5244374;28;20025;-68
2023/05/23 08:46:26;;;;;;;9.20;4.63;;;;;;;-145.79;62.67;78074.69;5243150;28;20112;-69
2023/05/23 08:48:59;;;;;;;9.13;4.68;;;;;;;-145.79;63.45;78091.66;5243788;28;20035;-69
2023/05/23 08:51:31;;;;;;;10.60;5.22;;;;;;;-145.79;63.87;78076.81;5222273;28;20113;-69
2023/05/23 08:54:05;;;;;;;10.55;5.75;;;;;;;-145.79;64.14;78093.78;5225274;28;20105;-69
2023/05/23 08:56:37;;;;;;;10.63;5.28;;;;;;;-145.79;63.80;78066.22;5242429;28;20029;-69
2023/05/23 08:59:09;;;;;;;10.82;5.07;;;;;;;-145.79;64.25;78076.81;5242522;28;20038;-67
2023/05/23 09:01:42;;;;;;;8.50;4.60;;;;;;;-145.79;65.38;78066.22;5243202;28;20029;-67
2023/05/23 09:04:14;;;;;;;9.27;4.60;;;;;;;-145.79;64.34;78064.09;5243178;28;20052;-66
2023/05/23 09:06:45;;;;;;;8.35;4.97;;;;;;;-145.79;65.13;78059.84;5242173;28;20034;-66
2023/05/23 09:09:17;;;;;;;8.30;4.15;;;;;;;-145.79;65.18;78055.63;5243492;28;20465;-67
2023/05/23 09:11:50;;;;;;;11.20;5.07;;;;;;;-145.79;64.84;78051.38;5243186;28;20033;-67
2023/05/23 09:14:22;;;;;;;13.07;5.70;;;;;;;-145.79;66.58;78032.28;5242573;28;20068;-67
2023/05/23 09:16:59;;;;;;;9.00;4.80;;;;;;;-145.79;65.80;78017.44;5243122;28;20033;-66
2023/05/23 09:19:31;;;;;;;8.63;4.90;;;;;;;-145.79;65.77;78040.78;5241725;28;20396;-68
2023/05/23 09:22:02;;;;;;;9.80;4.15;;;;;;;-145.79;65.37;78030.19;5242102;28;20124;-68
2023/05/23 09:24:35;;;;;;;7.45;3.80;;;;;;;-145.79;64.10;78047.13;5242916;28;20485;-67
2023/05/23 09:27:07;;;;;;;9.27;4.25;;;;;;;-145.79;64.67;78053.50;5241922;28;20025;-69
2023/05/23 09:29:39;;;;;;;6.88;3.97;;;;;;;-145.79;64.45;78051.38;5241920;28;20473;-68
2023/05/23 09:32:15;;;;;;;10.40;4.32;;;;;;;-145.79;63.68;78053.50;5241668;28;20530;-70
2023/05/23 09:34:56;;;;;;;13.63;3.95;;;;;;;-145.79;63.63;78047.13;5241860;28;20029;-68
2023/05/23 09:37:34;;;;;;;7.88;3.38;;;;;;;-145.79;63.38;78019.56;5243080;28;20041;-68
2023/05/23 09:40:11;;;;;;;10.32;3.83;;;;;;;-145.79;60.32;78023.81;5242346;28;20091;-68
2023/05/23 09:42:44;;;;;;;10.25;3.50;;;;;;;-145.79;59.12;78038.66;5241536;28;20037;-68
2023/05/23 09:45:16;;;;;;;10.10;3.42;;;;;;;-145.79;59.38;78025.94;5241996;28;20458;-69
2023/05/23 09:47:52;;;;;;;10.70;3.80;;;;;;;-145.79;58.52;78025.94;5242191;28;20033;-68
2023/05/23 09:50:30;;;;;;;13.30;5.32;;;;;;;-145.79;57.77;78023.81;5242736;28;20427;-69
2023/05/23 09:53:01;;;;;;;9.88;3.90;;;;;;;-145.79;60.06;78013.22;5242351;28;20026;-69
2023/05/23 09:55:33;;;;;;;8.80;3.50;;;;;;;-145.79;58.99;77992.00;5241747;28;20028;-69
2023/05/23 09:58:06;;;;;;;13.18;4.35;;;;;;;-145.79;57.41;77987.78;5242042;28;20029;-68
2023/05/23 10:00:39;;;;;;;8.73;3.17;;;;;;;-145.79;59.38;77975.06;5241436;28;20489;-69
2023/05/23 10:03:11;;;;;;;7.32;3.65;;;;;;;-145.79;56.11;77987.78;5240758;28;20109;-69
2023/05/23 10:05:45;;;;;;;11.02;3.28;;;;;;;-145.79;56.63;77998.38;5242078;28;20025;-69
2023/05/23 10:08:32;;;;;;;9.48;3.22;;;;;;;-145.79;59.82;77985.66;5242531;28;20029;-69
2023/05/23 10:11:12;;;;;;;11.48;4.28;;;;;;;-145.79;55.92;77987.78;5241538;28;20080;-69
2023/05/23 10:13:49;;;;;;;10.82;3.35;;;;;;;-145.79;55.57;77983.53;5241509;28;20017;-69
2023/05/23 10:16:42;;;;;;;12.20;3.50;;;;;;;-145.79;55.44;77949.63;5240613;28;20040;-69
2023/05/23 10:19:24;;;;;;;7.68;3.25;;;;;;;-145.79;56.00;77909.34;5242481;28;20362;-69
2023/05/23 10:22:01;;;;;;;11.55;3.55;;;;;;;-145.79;53.70;77919.94;5241447;28;20056;-67
2023/05/23 10:24:36;;;;;;;7.85;4.00;;;;;;;-145.79;53.61;77896.63;5241128;28;20028;-68
2023/05/23 10:27:08;;;;;;;8.40;2.90;;;;;;;-145.79;51.79;77892.38;5241558;28;20124;-67
2023/05/23 10:29:39;;;;;;;12.20;3.55;;;;;;;-145.79;51.31;77896.63;5241480;28;20674;-67
2023/05/23 10:32:11;;;;;;;8.77;3.60;;;;;;;-145.79;54.75;77900.84;5241346;28;20029;-67
2023/05/23 10:34:58;;;;;;;8.05;3.40;;;;;;;-145.79;52.42;77881.78;5241678;28;20041;-67
2023/05/23 10:37:39;;;;;;;7.80;3.55;;;;;;;-145.79;52.06;77881.78;5241340;28;20072;-67
2023/05/23 10:40:16;;;;;;;7.38;4.05;;;;;;;-145.79;52.15;77883.91;5241744;28;20144;-68
2023/05/23 10:43:18;;;;;;;9.48;3.72;;;;;;;-145.79;50.92;77881.78;5241605;28;20025;-67
2023/05/23 10:45:50;;;;;;;9.35;4.28;;;;;;;-145.79;50.31;77879.66;5240692;28;20546;-67
2023/05/23 10:48:34;;;;;;;9.88;3.55;;;;;;;-145.79;50.98;77852.09;5240835;28;20041;-67
2023/05/23 10:51:06;;;;;;;8.95;3.83;;;;;;;-145.79;49.86;77869.06;5240104;28;20283;-67
2023/05/23 10:53:40;;;;;;;9.68;3.45;;;;;;;-145.79;49.66;77856.34;5240742;28;20035;-67
2023/05/23 10:56:22;;;;;;;10.40;3.78;;;;;;;-145.79;49.41;77862.69;5241446;28;20037;-66
2023/05/23 10:58:55;;;;;;;14.77;4.63;;;;;;;-145.79;49.06;77860.56;5240487;28;20027;-67
2023/05/23 11:01:26;;;;;;;9.95;4.28;;;;;;;-145.79;48.35;77849.97;5240811;28;20048;-66
2023/05/23 11:04:04;;;;;;;8.63;5.60;;;;;;;-145.79;47.65;77828.78;5240682;28;20022;-67
2023/05/23 11:06:43;;;;;;;8.18;2.97;;;;;;;-145.79;47.50;77843.63;5240623;28;20440;-67
2023/05/23 11:09:19;;;;;;;11.48;3.53;;;;;;;-145.79;47.79;77830.91;5241235;28;20037;-67
2023/05/23 11:11:51;;;;;;;10.35;3.50;;;;;;;-145.79;47.57;77828.78;5241184;28;20521;-67
2023/05/23 11:14:36;;;;;;;9.18;3.45;;;;;;;-145.79;48.26;77828.78;5239985;28;20104;-68
2023/05/23 11:17:11;;;;;;;11.00;3.53;;;;;;;-145.79;47.11;77828.78;5241483;28;20064;-67
2023/05/23 11:20:07;;;;;;;7.97;3.90;;;;;;;-145.79;45.61;77824.53;5238603;28;20053;-67
2023/05/23 11:22:38;;;;;;;9.27;4.22;;;;;;;-145.79;45.64;77796.97;5238901;28;20053;-67
2023/05/23 11:25:10;;;;;;;13.55;7.50;;;;;;;-145.79;45.03;77805.47;5240211;28;20029;-68
2023/05/23 11:27:45;;;;;;;8.48;3.53;;;;;;;-145.79;45.73;77794.88;5239333;28;20048;-68
2023/05/23 11:30:17;;;;;;;12.77;3.60;;;;;;;-145.79;45.70;77777.91;5220520;28;20032;-68
2023/05/23 11:32:51;;;;;;;7.47;2.92;;;;;;;-145.79;45.83;77752.47;5228564;28;20021;-69
2023/05/23 11:35:23;;;;;;;11.13;3.65;;;;;;;-145.79;46.00;77754.59;5239824;28;20100;-67
2023/05/23 11:37:56;;;;;;;13.55;7.68;;;;;;;-145.79;46.15;77767.31;5240006;28;20037;-66
2023/05/23 11:40:33;;;;;;;9.05;3.28;;;;;;;-145.79;46.06;77769.44;5239861;28;20436;-67
2023/05/23 11:43:09;;;;;;;10.15;3.75;;;;;;;-145.79;45.26;77767.31;5239167;28;20037;-68
2023/05/23 11:45:40;;;;;;;9.70;3.50;;;;;;;-145.79;44.65;77763.06;5240067;28;20021;-68
2023/05/23 11:48:16;;;;;;;10.02;3.25;;;;;;;-145.79;44.98;77746.09;5239983;28;20036;-69
2023/05/23 11:50:51;;;;;;;9.82;3.30;;;;;;;-145.79;44.78;77733.38;5241101;28;20034;-67
2023/05/23 11:53:24;;;;;;;10.07;3.30;;;;;;;-145.79;45.00;77720.66;5240546;28;20033;-68
2023/05/23 11:55:58;;;;;;;8.75;3.55;;;;;;;-145.79;44.58;77739.75;5240042;28;20044;-68
2023/05/23 11:58:33;;;;;;;10.23;3.70;;;;;;;-145.79;44.13;77705.84;5231414;28;20025;-68
2023/05/23 12:01:06;;;;;;;8.63;3.47;;;;;;;-145.79;43.95;77688.88;5240078;28;20029;-68
2023/05/23 12:03:49;;;;;;;11.95;3.35;;;;;;;-145.79;43.73;77669.78;5240191;28;20021;-68
2023/05/23 12:06:23;;;;;;;7.40;3.55;;;;;;;-145.79;43.30;77667.69;5223820;28;20025;-68
2023/05/23 12:08:54;;;;;;;9.43;4.25;;;;;;;-145.79;42.79;77669.78;5242388;28;20025;-68
2023/05/23 12:11:30;;;;;;;13.60;4.60;;;;;;;-145.79;42.90;77654.97;5244613;28;20538;-69
2023/05/23 12:14:05;;;;;;;11.93;3.63;;;;;;;-145.79;42.40;77691.00;5233238;28;20029;-66
2023/05/23 12:16:36;;;;;;;6.40;3.33;;;;;;;-145.79;42.94;77667.69;5244020;28;20483;-69
2023/05/23 12:19:07;;;;;;;8.00;3.38;;;;;;;-145.79;43.01;77688.88;5244044;28;20026;-68
2023/05/23 12:21:48;;;;;;;10.30;3.83;;;;;;;-145.79;43.62;77688.88;5243877;28;20041;-69
2023/05/23 12:24:21;;;;;;;14.82;7.97;;;;;;;-145.79;42.55;77710.06;5244715;28;20029;-68
2023/05/23 12:27:02;;;;;;;8.07;3.20;;;;;;;-145.79;43.27;77716.44;5244042;28;20508;-67
2023/05/23 12:29:34;;;;;;;7.28;3.00;;;;;;;-145.79;42.37;77720.66;5242642;28;20433;-68
2023/05/23 12:32:06;;;;;;;8.15;3.70;;;;;;;-145.79;42.84;77712.19;5243893;28;20358;-68
2023/05/23 12:34:41;;;;;;;8.60;2.70;;;;;;;-145.79;43.65;77724.91;5238661;28;20029;-68
2023/05/23 12:37:13;;;;;;;9.02;3.75;;;;;;;-145.79;43.55;77727.03;5233955;28;20042;-68
2023/05/23 12:39:45;;;;;;;10.18;3.15;;;;;;;-145.79;43.54;77775.78;5241950;28;20075;-68
2023/05/23 12:42:19;;;;;;;7.57;3.22;;;;;;;-145.79;43.42;77746.09;5239799;28;20535;-69
2023/05/23 12:44:52;;;;;;;7.20;3.17;;;;;;;-145.79;42.84;77729.16;5239331;28;20530;-69
2023/05/23 12:47:23;;;;;;;10.25;3.25;;;;;;;-145.79;41.40;77724.91;5234651;28;20496;-68
2023/05/23 12:49:55;;;;;;;6.43;2.63;;;;;;;-145.79;41.26;77714.31;5242632;28;20033;-68
2023/05/23 12:52:26;;;;;;;11.80;3.17;;;;;;;-145.79;41.59;77718.56;5241080;28;20105;-68
2023/05/23 12:54:58;;;;;;;5.68;2.75;;;;;;;-145.79;41.83;77682.50;5235040;28;20028;-68
2023/05/23 12:57:30;;;;;;;11.25;3.92;;;;;;;-145.79;41.92;77665.56;5241515;28;20076;-68
2023/05/23 13:00:01;;;;;;;6.90;2.72;;;;;;;-145.79;40.47;77691.00;5242651;28;20465;-68
2023/05/23 13:02:33;;;;;;;6.40;2.95;;;;;;;-145.79;40.74;77703.72;5242363;28;20032;-68
2023/05/23 13:05:04;;;;;;;8.20;3.55;;;;;;;-145.79;41.11;77733.38;5241140;28;20139;-68
2023/05/23 13:07:36;;;;;;;8.80;3.10;;;;;;;-145.79;41.24;77707.94;5242032;28;20547;-69
2023/05/23 13:10:08;;;;;;;8.43;2.95;;;;;;;-145.79;41.53;77693.13;5242647;28;20018;-67
2023/05/23 13:12:41;;;;;;;8.93;5.93;;;;;;;-145.79;41.52;77657.06;5241597;28;20029;-67
2023/05/23 13:15:12;;;;;;;8.55;3.70;;;;;;;-145.79;41.29;77682.50;5241643;28;20025;-67
2023/05/23 13:17:45;;;;;;;8.00;2.97;;;;;;;-145.79;42.23;77703.72;5241153;28;20029;-69
2023/05/23 13:20:17;;;;;;;7.22;3.53;;;;;;;-145.79;41.20;77729.16;5240896;28;20103;-67
2023/05/23 13:22:48;;;;;;;22.88;18.02;;;;;;;-145.79;41.12;77735.50;5244142;28;20095;-68
2023/05/23 13:25:20;;;;;;;10.05;3.75;;;;;;;-145.79;41.15;77724.91;5241504;28;20021;-67
2023/05/23 13:27:52;;;;;;;6.80;3.33;;;;;;;-145.79;41.24;77710.06;5240714;28;20033;-66
2023/05/23 13:30:23;;;;;;;7.90;2.50;;;;;;;-145.79;39.65;77705.84;5241416;28;20022;-68
2023/05/23 13:32:55;;;;;;;5.35;2.92;;;;;;;-145.79;39.58;77705.84;5241062;28;20053;-69
2023/05/23 13:35:26;;;;;;;9.98;2.90;;;;;;;-145.79;39.46;77650.72;5241779;28;20155;-67
2023/05/23 13:37:58;;;;;;;7.07;3.15;;;;;;;-145.79;39.69;77646.47;5241032;28;20131;-68
2023/05/23 13:40:31;;;;;;;8.13;3.53;;;;;;;-145.79;40.32;77652.84;5238534;28;20030;-66
2023/05/23 13:43:03;;;;;;;9.57;4.28;;;;;;;-145.79;39.61;77663.44;5223801;28;20034;-68
2023/05/23 13:45:34;;;;;;;6.63;2.75;;;;;;;-145.79;39.99;77642.25;5220885;28;20033;-68
2023/05/23 13:48:06;;;;;;;9.30;2.63;;;;;;;-145.79;41.09;77682.50;5228122;28;20120;-68
2023/05/23 13:50:40;;;;;;;9.35;4.30;;;;;;;-145.79;42.00;77703.72;5231047;28;20060;-67
2023/05/23 13:53:17;;;;;;;6.25;3.28;;;;;;;-145.79;41.56;77705.84;5234233;28;20468;-68
2023/05/23 13:55:49;;;;;;;8.30;3.83;;;;;;;-145.79;41.58;77712.19;5240081;28;20112;-69
2023/05/23 13:58:20;;;;;;;7.03;3.33;;;;;;;-145.79;42.42;77688.88;5241031;28;20109;-70
2023/05/23 14:01:01;;;;;;;8.15;3.22;;;;;;;-145.79;41.20;77707.94;5230517;28;20195;-67
2023/05/23 14:03:32;;;;;;;7.63;3.08;;;;;;;-145.79;40.91;77727.03;5237531;28;20021;-69
2023/05/23 14:06:04;;;;;;;12.02;6.93;;;;;;;-145.79;41.20;77765.19;5240939;28;20087;-67
2023/05/23 14:08:40;;;;;;;7.75;3.35;;;;;;;-145.79;42.17;77727.03;5240523;28;20034;-66
2023/05/23 14:11:15;;;;;;;11.20;4.93;;;;;;;-145.79;40.94;77739.75;5241105;28;20029;-67
2023/05/23 14:13:46;;;;;;;9.50;3.35;;;;;;;-145.79;41.70;77729.16;5240241;28;20465;-67
2023/05/23 14:16:24;;;;;;;8.13;2.72;;;;;;;-145.79;42.38;77733.38;5240332;28;20022;-66
2023/05/23 14:18:55;;;;;;;10.23;3.75;;;;;;;-145.79;41.48;77710.06;5241000;28;20112;-67
2023/05/23 14:21:30;;;;;;;10.73;3.17;;;;;;;-145.79;40.67;77680.38;5239742;28;20459;-67
2023/05/23 14:24:02;;;;;;;8.40;3.15;;;;;;;-145.79;39.14;77638.00;5239741;28;20033;-67
2023/05/23 14:26:33;;;;;;;9.57;5.13;;;;;;;-145.79;38.39;77631.63;5241149;28;20032;-66
2023/05/23 14:29:07;;;;;;;7.25;3.40;;;;;;;-145.79;38.38;77674.03;5239403;28;20029;-66
2023/05/23 14:31:38;;;;;;;9.43;3.05;;;;;;;-145.79;38.74;77684.63;5239375;28;20022;-66
2023/05/23 14:34:10;;;;;;;10.00;3.38;;;;;;;-145.79;38.78;77659.19;5239626;28;20083;-67
2023/05/23 14:36:41;;;;;;;11.98;8.18;;;;;;;-145.79;39.32;77623.16;5238771;28;20043;-68
2023/05/23 14:39:13;;;;;;;18.40;15.77;;;;;;;-145.79;38.19;77608.31;5240475;28;20026;-67
2023/05/23 14:41:45;;;;;;;8.88;4.88;;;;;;;-145.79;36.57;77595.59;5239138;28;20033;-66
2023/05/23 14:44:16;;;;;;;6.03;2.92;;;;;;;-145.79;36.02;77576.53;5239818;28;20021;-67
2023/05/23 14:46:49;;;;;;;7.75;3.13;;;;;;;-145.79;36.30;77580.75;5241943;28;20079;-68
2023/05/23 14:49:27;;;;;;;5.50;3.10;;;;;;;-145.79;37.46;77599.84;5243552;28;20033;-67
2023/05/23 14:52:05;;;;;;;9.32;3.13;;;;;;;-145.79;37.86;77616.81;5237956;28;20017;-67
2023/05/23 14:54:39;;;;;;;5.90;2.90;;;;;;;-145.79;38.33;77665.56;5238975;28;20432;-67
2023/05/23 14:57:11;;;;;;;8.70;2.92;;;;;;;-145.79;38.99;77663.44;5238806;28;20028;-66
2023/05/23 14:59:42;;;;;;;13.32;4.45;;;;;;;-145.79;39.70;77701.59;5239798;28;20484;-66
2023/05/23 15:02:13;;;;;;;12.13;3.63;;;;;;;-145.79;40.46;77703.72;5240009;28;20021;-65
2023/05/23 15:04:51;;;;;;;8.40;3.30;;;;;;;-145.79;40.00;77671.91;5238893;28;20039;-66
2023/05/23 15:07:22;;;;;;;8.50;2.90;;;;;;;-145.79;39.92;77686.75;5240181;28;20369;-66
2023/05/23 15:09:53;;;;;;;16.77;10.68;;;;;;;-145.79;40.09;77652.84;5239860;28;20029;-67
2023/05/23 15:12:30;;;;;;;6.68;3.00;;;;;;;-145.79;39.32;77682.50;5238165;28;20030;-65
2023/05/23 15:15:02;;;;;;;9.70;4.05;;;;;;;-145.79;38.55;77674.03;5240286;28;20017;-66
2023/05/23 15:17:34;;;;;;;8.20;2.78;;;;;;;-145.79;37.93;77665.56;5240075;28;20033;-66
2023/05/23 15:20:07;;;;;;;7.05;3.00;;;;;;;-145.79;37.86;77648.59;5238313;28;20029;-66
2023/05/23 15:22:38;;;;;;;8.40;3.10;;;;;;;-145.79;38.36;77667.69;5238896;28;20132;-65
2023/05/23 15:25:12;;;;;;;7.95;3.13;;;;;;;-145.79;38.44;77657.06;5239446;28;20032;-66
2023/05/23 15:27:44;;;;;;;6.30;2.50;;;;;;;-145.79;38.71;77661.31;5239765;28;20038;-67
2023/05/23 15:30:15;;;;;;;9.30;3.13;;;;;;;-145.79;38.80;77688.88;5239690;28;20102;-67
2023/05/23 15:32:47;;;;;;;10.68;3.53;;;;;;;-145.79;38.91;77703.72;5238789;28;20029;-66
2023/05/23 15:35:18;;;;;;;10.63;3.15;;;;;;;-145.79;38.96;77701.59;5239500;28;20025;-66
2023/05/23 15:37:50;;;;;;;8.35;3.50;;;;;;;-145.79;39.08;77714.31;5239561;28;20428;-67
2023/05/23 15:40:21;;;;;;;7.97;4.18;;;;;;;-145.79;39.73;77724.91;5239217;28;20412;-63
2023/05/23 15:42:52;;;;;;;7.47;3.67;;;;;;;-145.79;39.81;77718.56;5240771;28;20476;-64
2023/05/23 15:45:24;;;;;;;11.40;7.78;;;;;;;-145.79;39.45;77722.78;5244247;28;20021;-64
2023/05/23 15:47:55;;;;;;;7.88;3.08;;;;;;;-145.79;39.39;77714.31;5241802;28;20140;-66
2023/05/23 15:50:27;;;;;;;11.00;4.72;;;;;;;-145.79;39.31;77750.34;5243114;28;20457;-65
2023/05/23 15:52:58;;;;;;;10.43;3.33;;;;;;;-145.79;39.96;77775.78;5243160;28;20084;-70
2023/05/23 15:55:32;;;;;;;7.55;3.00;;;;;;;-145.79;39.96;77760.94;5240940;28;20381;-69
2023/05/23 15:58:13;;;;;;;9.73;3.42;;;;;;;-145.79;40.11;77788.50;5243803;28;20113;-68
2023/05/23 16:00:47;;;;;;;7.60;2.97;;;;;;;-145.79;39.61;77796.97;5233327;28;20014;-68
2023/05/23 16:03:19;;;;;;;7.03;2.78;;;;;;;-145.79;39.84;77784.25;5239629;28;20080;-68
2023/05/23 16:05:50;;;;;;;6.90;2.90;;;;;;;-145.79;39.79;77788.50;5243666;28;20036;-68
2023/05/23 16:08:22;;;;;;;8.57;3.22;;;;;;;-145.79;40.02;77792.75;5242221;28;20057;-69
2023/05/23 16:10:53;;;;;;;11.27;3.63;;;;;;;-145.79;40.34;77801.22;5243486;28;20040;-67
2023/05/23 16:13:24;;;;;;;7.60;2.88;;;;;;;-145.79;40.34;77796.97;5242468;28;20029;-69
2023/05/23 16:15:56;;;;;;;7.10;3.05;;;;;;;-145.79;39.75;77809.69;5243237;28;20480;-68
2023/05/23 16:18:27;;;;;;;9.77;2.65;;;;;;;-145.79;40.05;77801.22;5242987;28;20104;-69
2023/05/23 16:20:58;;;;;;;8.75;2.95;;;;;;;-145.79;39.55;77799.09;5242913;28;20099;-68
2023/05/23 16:23:30;;;;;;;9.32;3.50;;;;;;;-145.79;38.55;77811.81;5243013;28;20045;-68
2023/05/23 16:26:14;;;;;;;7.28;3.08;;;;;;;-145.79;38.80;77803.34;5243192;28;20031;-69
2023/05/23 16:28:46;;;;;;;7.03;2.75;;;;;;;-145.79;38.72;77780.03;5241821;28;20042;-69
2023/05/23 16:31:17;;;;;;;7.55;3.22;;;;;;;-145.79;38.41;77754.59;5242626;28;20036;-69
2023/05/23 16:33:48;;;;;;;8.00;3.13;;;;;;;-145.79;38.17;77737.63;5243609;28;20022;-69
2023/05/23 16:36:20;;;;;;;19.75;16.08;;;;;;;-145.79;38.53;77760.94;5242512;28;20108;-70
2023/05/23 16:38:52;;;;;;;5.57;3.08;;;;;;;-145.79;38.83;77746.09;5242410;28;20091;-68
2023/05/23 16:41:24;;;;;;;18.10;11.65;;;;;;;-145.79;38.45;77733.38;5242579;28;20350;-69
2023/05/23 16:43:55;;;;;;;9.35;2.92;;;;;;;-145.79;37.85;77741.88;5241961;28;20033;-68
2023/05/23 16:46:26;;;;;;;11.30;3.55;;;;;;;-145.79;38.41;77754.59;5242639;28;20027;-67
2023/05/23 16:49:01;;;;;;;6.82;2.92;;;;;;;-145.79;38.19;77724.91;5242613;28;20381;-68
2023/05/23 16:51:32;;;;;;;9.23;3.35;;;;;;;-145.79;37.98;77707.94;5241539;28;20495;-69
